BIENTÔT MET'MAP
version 2.0 !

Prévue avant fin octobre,
la nouvelle version sera
plus belle, plus complète
et hébergée sur un serveur
3 fois plus puissant...
et toujours gratuite !


Pas compatible ?
Essayez la version Mobile !

SE CONNECTER : | S'inscrire | Disclaimer | Découvrir Orbifly |
Code OACI :

TAF - LWOH Ohrid - 31 May 2020 03:22 UTC - Data Source NOAA   


- Altitude de l'aérodrome : 2313 ft
- Code IATA : OHD
- Pas de NOTAMs connus.


LWOH - Ohrid

Dernier METAR connu : 2015/08/11 08:00 LWOH 110800Z 16004KT 9999 FEW050 23/16 Q1016
TAF COR TAF LWOH
Valide du 31 à 00h jusqu'au 01 à 00h UTC


302330Z 3100/3124 VRB02KT 9999 BKN050
PROB30
TEMPO 3101/3107 VRB15KT TSRA FEW030CB BKN040
TEMPO 3111/3119 VRB15KT TSRA FEW030CB BKN040

Source NOAA


MET'MAP, la Météo Aéronautique d'un coup d'oeil ! - Copyright ORBIFLY Décembre 2007

Développement & Programmation : Alexandra Zaïnal
Co-Développement : Marc-Olivier Méhu
Soutien technique & logistique : Manuel Goepfert
Conception & Financement : Baudouin d'Aumeries